KHWO/HWO METAR and TAF weather

Enter ICAO airport designator
Station Type Date Time Source
KHWO METAR 2019/02/16 00:53 UTC NOAA

KHWO 160053Z 16006KT 10SM CLR 23/18 A2997 RMK AO2 SLP147 T02280183


Station Type Date Time Source
KHWO Decoded METAR 2019/02/16 00:53 UTC NOAA

HOLLYWOOD NORTH PERRY AIRPORT , FL, United States (KHWO) 26-00N 080-14W 2M
Feb 15, 2019 - 07:53 PM EST / 2019.02.16 0053 UTC
Wind: from the SSE (160 degrees) at 7 MPH (6 KT):0
Visibility: 10 mile(s):0
Sky conditions: clear
Temperature: 73.0 F (22.8 C)
Dew Point: 64.9 F (18.3 C)
Relative Humidity: 75%
Pressure (altimeter): 29.97 in. Hg (1014 hPa)
ob: KHWO 160053Z 16006KT 10SM CLR 23/18 A2997 RMK AO2 SLP147 T02280183
cycle: 1

Station Type Date Time Source
KHWO TAF UTC NOAA

Error!


Example: see airport list